Etusivu
METAR-TAF:

METAR-TAF

Lentoasemat :

Jizan, Saudi-Arabia

Leveyspiiri: 16-54N, Pituuspiiri: 042-35E, korkeus merenpinnasta: 6 m

Tämänhetkinen sää

Tämä raportti tehtiin 52 minuuttia sitten, kello 02.00 UTC
Tuuli 4 kn idästä/kaakosta
Lämpötila 27°C
Kosteus 74%
Ilmanpaine 1011 hPa
Näkyvyys 10 km tai enemmän
ei pilviä alle 1500 m:ssä eikä cumulonimbus-pilviä

METAR: OEGN 280200Z 11004KT CAVOK 27/22 Q1011 NOSIG

Aika: 05:52 (02:52 UTC)

Sääennuste

Tämä raportti tehtiin 3 tuntia ja 52 minuuttia sitten, kello 23.00 UTC
Ennuste voimassa 28. päivästä klo 00 UTC - 29. päivään klo 06 UTC
Tuuli 6 kn idästä
Näkyvyys: 7000 m
Muutamia pilviä 3000 ft:n korkeudessa
Tulossa
28. päivästä klo 06 UTC - 28. päivään klo 08 UTC
Tuuli 13 kn lännestä
Tulossa
28. päivästä klo 18 UTC - 28. päivään klo 20 UTC
Tuuli 3 kn eri suunnista

TAF: OEGN 272300Z 2800/2906 09006KT 7000 FEW030 BECMG 2806/2808 26013KT BECMG 2818/2820 VRB03KT

Säähavainnot ja -ennusteet yli 4000 lentoasemalta (METAR- ja TAF-raportit).

Käytössä olevat sääasemat on merkitty karttaan keltaisilla ja punaisilla pisteillä.

Aseta hiiri pisteen päälle nähdäksesi sääaseman nimen.

Klikkaa sitten nähdäksesi säähavainnot ja -ennusteet.

Kartan vaihtaminen: klikkaa mustalla rastilla varustettuja vihreitä pisteitä, niin voit zoomata sisään; viivalla varustettua vihreää pistettä, niin voit zoomata ulos tai vihreitä nuolia, niin pääset viereisille kartoille.


METAR-TAF: